createdAt,value
2023-04-18T00:01:02.145Z,16.86
2023-04-18T00:03:28.673Z,16.86
2023-04-18T00:05:55.228Z,16.86
2023-04-18T00:08:21.547Z,16.85
2023-04-18T00:10:47.948Z,16.85
2023-04-18T00:13:14.341Z,16.81
2023-04-18T00:15:40.676Z,16.82
2023-04-18T00:18:07.017Z,16.80
2023-04-18T00:20:33.446Z,16.79
2023-04-18T00:22:59.807Z,16.76
2023-04-18T00:25:26.131Z,16.74
2023-04-18T00:27:52.742Z,16.74
2023-04-18T00:30:19.088Z,16.74
2023-04-18T00:32:45.465Z,16.71
2023-04-18T00:35:11.892Z,16.69
2023-04-18T00:37:38.219Z,16.66
2023-04-18T00:40:04.634Z,16.64
2023-04-18T00:42:31.032Z,16.63
2023-04-18T00:44:57.377Z,16.63
2023-04-18T00:47:23.811Z,16.61
2023-04-18T00:49:50.777Z,16.51
2023-04-18T00:52:17.134Z,16.59
2023-04-18T00:54:43.469Z,16.60
2023-04-18T00:57:10.522Z,16.60
2023-04-18T00:59:37.149Z,16.59
2023-04-18T01:02:03.601Z,16.58
2023-04-18T01:04:30.368Z,16.59
2023-04-18T01:06:56.757Z,16.50
2023-04-18T01:09:23.080Z,16.58
2023-04-18T01:11:51.641Z,16.55
2023-04-18T01:14:17.968Z,16.56
2023-04-18T01:16:44.294Z,16.53
2023-04-18T01:19:10.976Z,16.54
2023-04-18T01:21:37.596Z,16.55
2023-04-18T01:24:04.342Z,16.53
2023-04-18T01:26:30.749Z,16.53
2023-04-18T01:28:57.125Z,16.53
2023-04-18T01:31:23.447Z,16.52
2023-04-18T01:33:49.932Z,16.52
2023-04-18T01:36:16.464Z,16.51
2023-04-18T01:38:42.799Z,16.50
2023-04-18T01:41:09.175Z,16.49
2023-04-18T01:43:35.492Z,16.48
2023-04-18T01:46:03.222Z,16.48
2023-04-18T01:48:29.576Z,16.46
2023-04-18T01:50:55.936Z,16.45
2023-04-18T01:53:22.257Z,16.45
2023-04-18T01:55:48.767Z,16.42
2023-04-18T01:58:15.164Z,16.39
2023-04-18T02:00:41.576Z,16.40
2023-04-18T02:03:08.096Z,16.35
2023-04-18T02:05:34.546Z,16.39
2023-04-18T02:08:00.872Z,16.48
2023-04-18T02:10:27.249Z,16.59
2023-04-18T02:12:53.610Z,16.73
2023-04-18T02:15:19.943Z,16.91
2023-04-18T02:17:46.361Z,17.08
2023-04-18T02:20:12.702Z,17.24
2023-04-18T02:22:39.041Z,17.38
2023-04-18T02:25:05.491Z,17.47
2023-04-18T02:27:31.827Z,17.57
2023-04-18T02:29:58.166Z,17.70
2023-04-18T02:32:24.772Z,17.82
2023-04-18T02:34:51.184Z,17.95
2023-04-18T02:37:17.523Z,18.01
2023-04-18T02:39:43.892Z,18.16
2023-04-18T02:42:10.211Z,18.26
2023-04-18T02:44:36.536Z,18.36
2023-04-18T02:47:02.918Z,18.47
2023-04-18T02:49:29.517Z,18.60
2023-04-18T02:51:55.917Z,18.69
2023-04-18T02:54:22.380Z,18.74
2023-04-18T02:56:54.703Z,18.82
2023-04-18T02:59:24.933Z,18.92
2023-04-18T03:02:06.222Z,19.00
2023-04-18T03:04:34.393Z,19.12
2023-04-18T03:07:03.528Z,19.14
2023-04-18T03:09:33.723Z,19.17
2023-04-18T03:12:04.842Z,19.26
2023-04-18T03:14:31.976Z,19.36
2023-04-18T03:16:59.220Z,19.49
2023-04-18T03:19:30.244Z,19.61
2023-04-18T03:21:59.801Z,19.66
2023-04-18T03:24:27.007Z,19.72
2023-04-18T03:26:57.299Z,19.80
2023-04-18T03:29:25.365Z,19.92
2023-04-18T03:31:51.847Z,20.01
2023-04-18T03:34:18.260Z,20.02
2023-04-18T03:36:46.597Z,20.07
2023-04-18T03:39:14.366Z,20.09
2023-04-18T03:41:41.152Z,20.24
2023-04-18T03:44:07.848Z,20.41
2023-04-18T03:46:36.543Z,20.58
2023-04-18T03:49:04.284Z,20.69
2023-04-18T03:51:30.674Z,20.80
2023-04-18T03:53:57.143Z,20.90
2023-04-18T03:56:23.669Z,21.08
2023-04-18T03:58:52.059Z,21.22
2023-04-18T04:01:20.250Z,21.26
2023-04-18T04:03:46.858Z,21.29
2023-04-18T04:06:13.755Z,21.41
2023-04-18T04:08:40.216Z,21.56
2023-04-18T04:11:06.863Z,21.74
2023-04-18T04:13:33.334Z,21.83
2023-04-18T04:15:59.874Z,21.81
2023-04-18T04:18:26.510Z,21.87
2023-04-18T04:20:53.138Z,21.96
2023-04-18T04:23:31.865Z,22.03
2023-04-18T04:25:58.520Z,22.09
2023-04-18T04:28:38.478Z,22.03
2023-04-18T04:31:06.205Z,22.01
2023-04-18T04:33:32.680Z,22.06
2023-04-18T04:36:01.881Z,22.11
2023-04-18T04:38:31.382Z,22.14
2023-04-18T04:40:58.453Z,22.14
2023-04-18T04:43:25.334Z,22.06
2023-04-18T04:45:52.233Z,22.07
2023-04-18T04:48:25.544Z,22.16
2023-04-18T04:50:53.362Z,22.23
2023-04-18T04:53:19.869Z,22.30
2023-04-18T04:55:46.559Z,22.31
2023-04-18T04:58:13.398Z,22.33
2023-04-18T05:01:03.124Z,22.38
2023-04-18T05:03:31.604Z,22.43
2023-04-18T05:05:58.272Z,22.48
2023-04-18T05:08:24.714Z,22.32
2023-04-18T05:10:51.344Z,22.09
2023-04-18T05:13:17.845Z,21.90
2023-04-18T05:15:44.341Z,21.77
2023-04-18T05:18:10.856Z,21.73
2023-04-18T05:20:37.264Z,21.84
2023-04-18T05:23:03.694Z,21.98
2023-04-18T05:25:30.186Z,22.03
2023-04-18T05:27:56.694Z,22.04
2023-04-18T05:30:23.115Z,22.04
2023-04-18T05:32:49.695Z,22.19
2023-04-18T05:35:16.172Z,22.29
2023-04-18T05:37:42.593Z,22.30
2023-04-18T05:40:09.102Z,22.28
2023-04-18T05:42:35.611Z,22.09
2023-04-18T05:45:02.017Z,21.80
2023-04-18T05:47:28.652Z,21.46
2023-04-18T05:49:55.133Z,21.22
2023-04-18T05:52:21.559Z,20.97
2023-04-18T05:54:47.941Z,20.73
2023-04-18T05:57:14.327Z,20.52
2023-04-18T05:59:40.748Z,20.35
2023-04-18T06:02:07.214Z,20.34
2023-04-18T06:04:33.696Z,20.46
2023-04-18T06:07:00.130Z,20.50
2023-04-18T06:09:26.544Z,20.43
2023-04-18T06:11:52.932Z,20.46
2023-04-18T06:14:19.324Z,20.54
2023-04-18T06:16:45.707Z,20.64
2023-04-18T06:19:12.038Z,20.76
2023-04-18T06:21:38.441Z,20.84
2023-04-18T06:24:04.838Z,20.84
2023-04-18T06:26:31.173Z,20.89
2023-04-18T06:28:57.606Z,20.95
2023-04-18T06:31:24.069Z,21.02
2023-04-18T06:33:50.496Z,21.01
2023-04-18T06:36:17.036Z,21.00
2023-04-18T06:38:43.447Z,20.97
2023-04-18T06:41:09.798Z,20.97
2023-04-18T06:43:36.150Z,21.03
2023-04-18T06:46:02.554Z,21.16
2023-04-18T06:48:28.916Z,21.23
2023-04-18T06:50:55.271Z,21.17
2023-04-18T06:53:21.654Z,21.20
2023-04-18T06:55:48.028Z,21.27
2023-04-18T06:58:14.366Z,21.32
2023-04-18T07:00:40.772Z,21.35
2023-04-18T07:03:08.141Z,21.45
2023-04-18T07:05:36.706Z,21.45
2023-04-18T07:08:03.122Z,21.46
2023-04-18T07:10:29.512Z,21.12
2023-04-18T07:12:55.878Z,20.94
2023-04-18T07:15:22.304Z,20.97
2023-04-18T07:17:48.704Z,21.12
2023-04-18T07:20:15.067Z,21.18
2023-04-18T07:22:41.467Z,21.17
2023-04-18T07:25:07.852Z,21.16
2023-04-18T07:27:34.223Z,21.24
2023-04-18T07:30:00.657Z,21.35
2023-04-18T07:32:27.040Z,21.43
2023-04-18T07:34:53.402Z,21.39
2023-04-18T07:37:19.822Z,21.46
2023-04-18T07:39:46.714Z,21.51
2023-04-18T07:42:13.070Z,21.60
2023-04-18T07:44:39.482Z,21.74
2023-04-18T07:47:05.905Z,21.80
2023-04-18T07:49:32.232Z,21.84
2023-04-18T07:51:58.678Z,21.83
2023-04-18T07:54:25.013Z,21.87
2023-04-18T07:56:51.375Z,21.89
2023-04-18T07:59:17.771Z,21.81
2023-04-18T08:01:44.144Z,21.70
2023-04-18T08:04:10.696Z,21.65
2023-04-18T08:06:37.200Z,21.63
2023-04-18T08:09:03.584Z,21.71
2023-04-18T08:11:29.968Z,21.80
2023-04-18T08:13:56.401Z,21.84
2023-04-18T08:16:22.886Z,21.83
2023-04-18T08:18:49.290Z,21.84
2023-04-18T08:21:15.713Z,21.87
2023-04-18T08:23:42.076Z,21.95
2023-04-18T08:26:08.392Z,22.00
2023-04-18T08:28:34.893Z,22.02
2023-04-18T08:31:01.240Z,22.04
2023-04-18T08:33:27.613Z,22.11
2023-04-18T08:35:54.125Z,22.22
2023-04-18T08:38:20.494Z,22.32
2023-04-18T08:40:46.839Z,22.26
2023-04-18T08:43:13.240Z,22.15
2023-04-18T08:45:39.639Z,22.17
2023-04-18T08:48:06.064Z,22.24
2023-04-18T08:50:32.533Z,22.32
2023-04-18T08:52:58.951Z,22.30
2023-04-18T08:55:25.362Z,22.30
2023-04-18T08:57:51.797Z,22.40
2023-04-18T09:00:18.148Z,22.48
2023-04-18T09:02:44.660Z,22.55
2023-04-18T09:05:11.508Z,22.54
2023-04-18T09:07:37.903Z,22.48
2023-04-18T09:10:04.278Z,22.51
2023-04-18T09:12:30.683Z,22.58
2023-04-18T09:14:57.041Z,22.64
2023-04-18T09:17:23.411Z,22.69
2023-04-18T09:19:49.848Z,22.70
2023-04-18T09:22:16.223Z,22.73
2023-04-18T09:24:42.597Z,22.83
2023-04-18T09:27:09.000Z,22.91
2023-04-18T09:29:35.375Z,22.89
2023-04-18T09:32:01.804Z,22.96
2023-04-18T09:34:28.320Z,22.99
2023-04-18T09:36:54.753Z,23.09
2023-04-18T09:39:21.130Z,23.21
2023-04-18T09:41:47.542Z,23.21
2023-04-18T09:44:15.385Z,23.20
2023-04-18T09:46:42.950Z,23.21
2023-04-18T09:49:11.183Z,23.28
2023-04-18T09:51:37.712Z,23.44
2023-04-18T09:54:04.076Z,23.52
2023-04-18T09:56:30.496Z,23.54
2023-04-18T09:58:56.865Z,23.59
2023-04-18T10:01:23.350Z,23.73
2023-04-18T10:03:49.915Z,23.89
2023-04-18T10:06:16.389Z,24.00
2023-04-18T10:08:42.802Z,23.96
2023-04-18T10:11:09.213Z,23.98
2023-04-18T10:13:35.673Z,24.10
2023-04-18T10:16:02.090Z,24.21
2023-04-18T10:18:28.549Z,24.26
2023-04-18T10:20:54.918Z,24.25
2023-04-18T10:23:21.290Z,24.24
2023-04-18T10:25:47.716Z,24.29
2023-04-18T10:28:14.079Z,24.37
2023-04-18T10:30:40.462Z,24.39
2023-04-18T10:33:10.575Z,24.38
2023-04-18T10:35:44.661Z,24.33
2023-04-18T10:38:11.080Z,24.41
2023-04-18T10:40:37.503Z,24.55
2023-04-18T10:43:03.851Z,24.57
2023-04-18T10:45:30.274Z,24.56
2023-04-18T10:47:57.685Z,24.54
2023-04-18T10:50:24.184Z,24.52
2023-04-18T10:52:50.588Z,24.44
2023-04-18T10:55:17.013Z,24.52
2023-04-18T10:57:43.477Z,24.56
2023-04-18T11:00:09.846Z,24.54
2023-04-18T11:02:36.350Z,24.61
2023-04-18T11:05:02.789Z,24.72
2023-04-18T11:07:30.087Z,24.79
2023-04-18T11:09:56.473Z,24.80
2023-04-18T11:12:22.861Z,24.79
2023-04-18T11:14:51.249Z,24.87
2023-04-18T11:17:17.624Z,24.98
2023-04-18T11:19:44.101Z,25.03
2023-04-18T11:22:10.512Z,25.02
2023-04-18T11:24:36.915Z,25.01
2023-04-18T11:27:03.291Z,25.09
2023-04-18T11:29:29.707Z,25.23
2023-04-18T11:31:58.279Z,25.23
2023-04-18T11:34:25.170Z,25.16
2023-04-18T11:36:51.574Z,25.09
2023-04-18T11:39:17.929Z,25.19
2023-04-18T11:41:44.292Z,25.36
2023-04-18T11:44:10.698Z,25.39
2023-04-18T11:46:37.120Z,25.40
2023-04-18T11:49:03.644Z,25.43
2023-04-18T11:51:30.083Z,25.41
2023-04-18T11:53:56.396Z,25.55
2023-04-18T11:56:22.735Z,25.41
2023-04-18T11:58:49.146Z,25.06
2023-04-18T12:01:15.629Z,24.81
2023-04-18T12:03:42.212Z,24.59
2023-04-18T12:06:08.743Z,24.59
2023-04-18T12:08:35.108Z,24.67
2023-04-18T12:11:01.549Z,24.69
2023-04-18T12:13:28.004Z,24.50
2023-04-18T12:15:54.381Z,24.48
2023-04-18T12:18:20.797Z,24.64
2023-04-18T12:20:47.234Z,24.80
2023-04-18T12:23:13.618Z,24.66
2023-04-18T12:25:40.055Z,24.46
2023-04-18T12:28:06.431Z,24.49
2023-04-18T12:30:33.390Z,24.64
2023-04-18T12:33:01.174Z,24.86
2023-04-18T12:35:27.579Z,24.91
2023-04-18T12:37:53.939Z,24.96
2023-04-18T12:40:20.364Z,24.80
2023-04-18T12:42:46.735Z,25.03
2023-04-18T12:45:13.080Z,25.24
2023-04-18T12:47:39.494Z,25.19
2023-04-18T12:50:05.987Z,25.06
2023-04-18T12:52:32.400Z,25.08
2023-04-18T12:54:58.743Z,25.20
2023-04-18T12:57:25.164Z,25.25
2023-04-18T12:59:51.598Z,25.24
2023-04-18T13:02:18.026Z,25.12
2023-04-18T13:04:44.512Z,25.09
2023-04-18T13:07:11.036Z,25.17
2023-04-18T13:09:37.414Z,25.23
2023-04-18T13:12:03.822Z,25.24
2023-04-18T13:14:30.271Z,25.23
2023-04-18T13:16:56.741Z,25.21
2023-04-18T13:19:23.147Z,25.31
2023-04-18T13:21:49.721Z,25.43
2023-04-18T13:24:16.118Z,25.21
2023-04-18T13:26:42.513Z,24.70
2023-04-18T13:29:08.862Z,24.64
2023-04-18T13:31:35.324Z,24.77
2023-04-18T13:34:01.742Z,24.90
2023-04-18T13:36:28.118Z,25.09
2023-04-18T13:38:55.041Z,25.22
2023-04-18T13:41:21.445Z,25.28
2023-04-18T13:43:47.808Z,25.31
2023-04-18T13:46:14.348Z,25.28
2023-04-18T13:48:40.750Z,25.25
2023-04-18T13:51:07.196Z,25.23
2023-04-18T13:53:33.653Z,25.21
2023-04-18T13:56:00.092Z,25.19
2023-04-18T13:58:26.453Z,25.15
2023-04-18T14:00:52.837Z,25.14
2023-04-18T14:03:19.536Z,25.14
2023-04-18T14:05:46.044Z,25.14
2023-04-18T14:08:12.495Z,25.15
2023-04-18T14:10:38.913Z,25.14
2023-04-18T14:13:05.254Z,25.12
2023-04-18T14:15:31.633Z,25.10
2023-04-18T14:17:58.170Z,25.09
2023-04-18T14:20:24.604Z,25.04
2023-04-18T14:22:53.018Z,24.98
2023-04-18T14:25:19.716Z,24.89
2023-04-18T14:27:46.134Z,24.87
2023-04-18T14:30:12.503Z,24.83
2023-04-18T14:32:38.951Z,24.79
2023-04-18T14:35:05.321Z,24.70
2023-04-18T14:37:33.169Z,24.70
2023-04-18T14:39:59.687Z,24.70
2023-04-18T14:42:26.105Z,24.69
2023-04-18T14:44:52.499Z,24.63
2023-04-18T14:47:18.922Z,24.58
2023-04-18T14:49:45.281Z,24.52
2023-04-18T14:52:11.714Z,24.51
2023-04-18T14:54:38.123Z,24.52
2023-04-18T14:57:04.559Z,24.51
2023-04-18T14:59:30.937Z,24.47
2023-04-18T15:01:57.433Z,24.46
2023-04-18T15:04:23.967Z,24.43
2023-04-18T15:06:50.509Z,24.42
2023-04-18T15:09:16.952Z,24.45
2023-04-18T15:11:43.317Z,24.45
2023-04-18T15:14:09.648Z,24.44
2023-04-18T15:16:36.072Z,24.40
2023-04-18T15:19:02.475Z,24.37
2023-04-18T15:21:28.852Z,24.29
2023-04-18T15:23:55.319Z,24.27
2023-04-18T15:26:21.772Z,24.27
2023-04-18T15:28:48.108Z,24.26
2023-04-18T15:31:14.486Z,24.25
2023-04-18T15:33:40.841Z,24.24
2023-04-18T15:36:07.182Z,24.18
2023-04-18T15:38:33.560Z,24.12
2023-04-18T15:40:59.925Z,24.06
2023-04-18T15:43:26.308Z,24.03
2023-04-18T15:45:52.838Z,24.01
2023-04-18T15:48:19.236Z,24.00
2023-04-18T15:50:45.687Z,23.98
2023-04-18T15:53:12.137Z,23.96
2023-04-18T15:55:38.618Z,23.97
2023-04-18T15:58:05.112Z,23.95
2023-04-18T16:00:31.565Z,23.96
2023-04-18T16:02:58.037Z,23.94
2023-04-18T16:05:24.489Z,23.92
2023-04-18T16:07:50.867Z,23.92
2023-04-18T16:10:17.331Z,23.90
2023-04-18T16:12:43.739Z,23.89
2023-04-18T16:15:10.124Z,23.90
2023-04-18T16:17:36.461Z,23.85
2023-04-18T16:20:02.922Z,23.84
2023-04-18T16:22:29.316Z,23.82
2023-04-18T16:24:55.776Z,23.82
2023-04-18T16:27:22.172Z,23.81
2023-04-18T16:29:48.559Z,23.82
2023-04-18T16:32:14.891Z,23.81
2023-04-18T16:34:41.245Z,23.82
2023-04-18T16:37:07.613Z,23.81
2023-04-18T16:39:33.919Z,23.82
2023-04-18T16:42:00.274Z,23.79
2023-04-18T16:44:26.640Z,23.75
2023-04-18T16:46:52.981Z,23.70
2023-04-18T16:49:19.507Z,23.72
2023-04-18T16:51:45.913Z,23.72
2023-04-18T16:54:12.448Z,23.70
2023-04-18T16:56:39.099Z,23.71
2023-04-18T16:59:05.469Z,23.75
2023-04-18T17:01:31.843Z,23.79
2023-04-18T17:03:58.421Z,23.78
2023-04-18T17:06:25.049Z,23.78
2023-04-18T17:08:51.518Z,23.77
2023-04-18T17:11:17.905Z,23.75
2023-04-18T17:13:44.254Z,23.72
2023-04-18T17:16:10.624Z,23.73
2023-04-18T17:18:36.933Z,23.71
2023-04-18T17:21:03.318Z,23.67
2023-04-18T17:23:30.958Z,23.67
2023-04-18T17:25:59.094Z,23.55
2023-04-18T17:28:25.461Z,23.60
2023-04-18T17:30:51.805Z,23.59
2023-04-18T17:33:18.151Z,23.56
2023-04-18T17:35:44.522Z,23.53
2023-04-18T17:38:10.833Z,23.49
2023-04-18T17:40:37.225Z,23.45
2023-04-18T17:43:03.593Z,23.42
2023-04-18T17:45:29.932Z,23.38
2023-04-18T17:47:56.283Z,23.36
2023-04-18T17:50:22.707Z,23.33
2023-04-18T17:52:49.037Z,23.27
2023-04-18T17:55:15.382Z,23.23
2023-04-18T17:57:41.748Z,23.20
2023-04-18T18:00:08.073Z,23.16
2023-04-18T18:02:38.777Z,23.12
2023-04-18T18:05:05.344Z,23.10
2023-04-18T18:07:31.728Z,23.07
2023-04-18T18:09:58.549Z,23.05
2023-04-18T18:12:24.937Z,22.84
2023-04-18T18:14:51.250Z,22.95
2023-04-18T18:17:17.564Z,22.92
2023-04-18T18:19:43.925Z,22.88
2023-04-18T18:22:10.264Z,22.85
2023-04-18T18:24:36.593Z,22.81
2023-04-18T18:27:02.967Z,22.77
2023-04-18T18:29:29.276Z,22.74
2023-04-18T18:31:55.588Z,22.70
2023-04-18T18:34:21.968Z,22.64
2023-04-18T18:36:48.361Z,22.60
2023-04-18T18:39:14.965Z,22.58
2023-04-18T18:41:41.474Z,22.55
2023-04-18T18:44:07.796Z,22.52
2023-04-18T18:46:34.174Z,22.49
2023-04-18T18:49:00.612Z,22.46
2023-04-18T18:51:26.959Z,22.43
2023-04-18T18:53:53.344Z,22.39
2023-04-18T18:56:19.889Z,22.34
2023-04-18T18:58:46.231Z,22.30
2023-04-18T19:01:12.548Z,22.29
2023-04-18T19:03:39.099Z,22.28
2023-04-18T19:06:05.575Z,22.25
2023-04-18T19:08:31.949Z,22.20
2023-04-18T19:10:58.315Z,22.15
2023-04-18T19:13:24.641Z,22.06
2023-04-18T19:15:51.002Z,22.01
2023-04-18T19:18:17.486Z,21.97
2023-04-18T19:20:43.881Z,21.95
2023-04-18T19:23:10.205Z,21.92
2023-04-18T19:25:36.581Z,21.93
2023-04-18T19:28:02.921Z,21.89
2023-04-18T19:30:29.300Z,21.84
2023-04-18T19:32:55.721Z,21.78
2023-04-18T19:35:22.090Z,21.76
2023-04-18T19:37:48.486Z,21.74
2023-04-18T19:40:14.858Z,21.71
2023-04-18T19:42:41.184Z,21.67
2023-04-18T19:45:07.545Z,21.65
2023-04-18T19:47:34.034Z,21.61
2023-04-18T19:50:00.432Z,21.58
2023-04-18T19:52:26.779Z,21.54
2023-04-18T19:54:53.134Z,21.51
2023-04-18T19:57:19.489Z,21.45
2023-04-18T19:59:45.859Z,21.44
2023-04-18T20:02:12.277Z,21.39
2023-04-18T20:04:38.764Z,21.35
2023-04-18T20:07:05.297Z,21.33
2023-04-18T20:09:31.668Z,21.30
2023-04-18T20:11:57.998Z,21.30
2023-04-18T20:14:24.323Z,21.26
2023-04-18T20:16:50.783Z,21.24
2023-04-18T20:19:17.448Z,21.21
2023-04-18T20:21:44.040Z,21.17
2023-04-18T20:24:10.402Z,21.12
2023-04-18T20:26:36.732Z,21.06
2023-04-18T20:29:03.097Z,21.01
2023-04-18T20:31:29.481Z,21.00
2023-04-18T20:33:55.798Z,21.00
2023-04-18T20:36:22.125Z,20.97
2023-04-18T20:38:48.484Z,20.95
2023-04-18T20:41:14.873Z,20.93
2023-04-18T20:43:41.221Z,20.90
2023-04-18T20:46:07.594Z,20.85
2023-04-18T20:48:33.990Z,20.82
2023-04-18T20:51:00.406Z,20.75
2023-04-18T20:53:26.816Z,20.71
2023-04-18T20:55:53.138Z,20.70
2023-04-18T20:58:19.469Z,20.66
2023-04-18T21:00:45.934Z,20.64
2023-04-18T21:03:12.401Z,20.65
2023-04-18T21:05:38.826Z,20.62
2023-04-18T21:08:05.224Z,20.61
2023-04-18T21:10:31.575Z,20.58
2023-04-18T21:12:57.934Z,20.56
2023-04-18T21:15:24.417Z,20.54
2023-04-18T21:17:50.823Z,20.52
2023-04-18T21:20:17.219Z,20.49
2023-04-18T21:22:43.578Z,20.46
2023-04-18T21:25:09.929Z,20.45
2023-04-18T21:27:36.269Z,20.43
2023-04-18T21:30:04.680Z,20.42
2023-04-18T21:32:31.346Z,20.41
2023-04-18T21:34:57.654Z,20.38
2023-04-18T21:37:24.015Z,20.36
2023-04-18T21:39:50.344Z,20.34
2023-04-18T21:42:16.871Z,20.33
2023-04-18T21:44:43.267Z,20.29
2023-04-18T21:47:09.581Z,20.28
2023-04-18T21:49:35.897Z,20.23
2023-04-18T21:52:02.279Z,20.21
2023-04-18T21:54:28.601Z,20.19
2023-04-18T21:56:55.065Z,20.17
2023-04-18T21:59:21.477Z,20.15
2023-04-18T22:01:47.801Z,20.13
2023-04-18T22:04:14.422Z,20.10
2023-04-18T22:06:41.322Z,20.10
2023-04-18T22:09:07.653Z,20.05
2023-04-18T22:11:33.976Z,19.99
2023-04-18T22:14:00.328Z,19.97
2023-04-18T22:16:26.694Z,19.96
2023-04-18T22:18:53.173Z,19.94
2023-04-18T22:21:19.633Z,19.91
2023-04-18T22:23:45.958Z,19.89
2023-04-18T22:26:12.320Z,19.87
2023-04-18T22:28:38.692Z,19.85
2023-04-18T22:31:05.311Z,19.81
2023-04-18T22:33:31.736Z,19.78
2023-04-18T22:35:58.154Z,19.73
2023-04-18T22:38:24.533Z,19.70
2023-04-18T22:40:50.902Z,19.69
2023-04-18T22:43:17.299Z,19.66
2023-04-18T22:45:43.669Z,19.64
2023-04-18T22:48:10.063Z,19.62
2023-04-18T22:50:36.472Z,19.60
2023-04-18T22:53:02.795Z,19.57
2023-04-18T22:55:29.092Z,19.54
2023-04-18T22:57:55.457Z,19.50
2023-04-18T23:00:21.781Z,19.48
2023-04-18T23:02:48.342Z,19.45
2023-04-18T23:05:14.861Z,19.43
2023-04-18T23:07:41.169Z,19.41
2023-04-18T23:10:07.525Z,19.40
2023-04-18T23:12:34.020Z,19.38
2023-04-18T23:15:00.381Z,19.38
2023-04-18T23:17:26.772Z,19.37
2023-04-18T23:19:53.168Z,19.34
2023-04-18T23:22:19.665Z,19.33
2023-04-18T23:24:46.110Z,19.32
2023-04-18T23:27:12.590Z,19.31
2023-04-18T23:29:38.934Z,19.30
2023-04-18T23:32:05.383Z,19.29
2023-04-18T23:34:31.816Z,19.28
2023-04-18T23:36:58.147Z,19.27
2023-04-18T23:39:24.467Z,19.22
2023-04-18T23:41:50.819Z,19.21
2023-04-18T23:44:17.135Z,19.21
2023-04-18T23:46:43.513Z,19.20
2023-04-18T23:49:09.891Z,19.16
2023-04-18T23:51:36.226Z,19.15
2023-04-18T23:54:02.579Z,19.12
2023-04-18T23:56:28.967Z,19.10
2023-04-18T23:58:55.282Z,19.06
